首页
METAR-TAF:

METAR-TAF

机场 :

Space Coast Regional Airport

泰特斯维尔, 佛罗里达州, 美国

纬度: 28-31N, 经度: 080-48W, 海拔: 11米

当前天气观测

该预报发布于1小时和14分钟前的16:50 UTC
风速14节,风向西转西北
温度 26°C
湿度 58%
气压 1013 hPa
能見度: 11.3公里
多云层高于3000英尺

METAR: KTIX 031650Z 30014KT 7SM BKN030 26/17 A2990

时间: 13:04 (18:04 UTC)

预报

该预报发布于25分钟前的17:39 UTC
预报有效从03日的 18点(UTC)到 04日的 18点(UTC)
风速14节,风向西转西北,有时为20节阵风
能見度: 10公里
多云层高于3000英尺
多云层高于25000英尺
从 03日的 2100点(UTC)
风速12节,风向北转西北
能見度: 10公里
散云层高于4000英尺
散云层高于25000英尺
从 04日的 0600点(UTC)
风速4节,风向西北
能見度: 10公里
多云层高于5000英尺
多云层高于20000英尺
从 04日的 1400点(UTC)
风速12节,风向北转西北
能見度: 10公里
散云层高于2500英尺
多云层高于25000英尺

TAF: KTIX 031739Z 0318/0418 30014G20KT P6SM BKN030 BKN250 FM032100 34012KT P6SM SCT040 SCT250 FM040600 31004KT P6SM BKN050 BKN200 FM041400 34012KT P6SM SCT025 BKN250

超过4000个机场的气象观测和天气预报(METAR&TAF报告)。

可查询的气象台以黄色和红色小点在地图上表示。

将鼠标移到小点上方,可查看气象台名称。

然后点击查看天气观测和预报。

如需切换地图:点击带黑十字的绿色按钮放大地图;点击带横线的绿色按钮缩小地图;或者点击绿色箭头查看邻近地区的地图。


METAR-TAF: